sensor_id;sensor_type;location;lat;lon;timestamp;temperature;humidity
52543;DHT22;38449;52.696;6.186;2023-06-04T00:00:27;12.30;99.90
52543;DHT22;38449;52.696;6.186;2023-06-04T00:02:53;12.30;99.90
52543;DHT22;38449;52.696;6.186;2023-06-04T00:05:19;12.30;99.90
52543;DHT22;38449;52.696;6.186;2023-06-04T00:07:47;12.30;99.90
52543;DHT22;38449;52.696;6.186;2023-06-04T00:10:13;12.30;99.90
52543;DHT22;38449;52.696;6.186;2023-06-04T00:12:40;12.30;99.90
52543;DHT22;38449;52.696;6.186;2023-06-04T00:15:06;12.20;99.90
52543;DHT22;38449;52.696;6.186;2023-06-04T00:17:33;12.20;99.90
52543;DHT22;38449;52.696;6.186;2023-06-04T00:19:59;12.20;99.90
52543;DHT22;38449;52.696;6.186;2023-06-04T00:22:25;12.10;99.90
52543;DHT22;38449;52.696;6.186;2023-06-04T00:24:52;12.10;99.90
52543;DHT22;38449;52.696;6.186;2023-06-04T00:27:18;12.10;99.90
52543;DHT22;38449;52.696;6.186;2023-06-04T00:29:44;12.10;99.90
52543;DHT22;38449;52.696;6.186;2023-06-04T00:32:11;12.10;99.90
52543;DHT22;38449;52.696;6.186;2023-06-04T00:34:37;12.00;99.90
52543;DHT22;38449;52.696;6.186;2023-06-04T00:37:03;12.00;99.90
52543;DHT22;38449;52.696;6.186;2023-06-04T00:39:30;11.90;99.90
52543;DHT22;38449;52.696;6.186;2023-06-04T00:41:56;11.90;99.90
52543;DHT22;38449;52.696;6.186;2023-06-04T00:44:22;11.80;99.90
52543;DHT22;38449;52.696;6.186;2023-06-04T00:46:51;11.80;99.90
52543;DHT22;38449;52.696;6.186;2023-06-04T00:49:20;11.80;99.90
52543;DHT22;38449;52.696;6.186;2023-06-04T00:51:46;11.70;99.90
52543;DHT22;38449;52.696;6.186;2023-06-04T00:54:13;11.70;99.90
52543;DHT22;38449;52.696;6.186;2023-06-04T00:56:40;11.60;99.90
52543;DHT22;38449;52.696;6.186;2023-06-04T00:59:07;11.70;99.90
52543;DHT22;38449;52.696;6.186;2023-06-04T01:01:43;11.60;99.90
52543;DHT22;38449;52.696;6.186;2023-06-04T01:04:29;11.60;99.90
52543;DHT22;38449;52.696;6.186;2023-06-04T01:06:57;11.60;99.90
52543;DHT22;38449;52.696;6.186;2023-06-04T01:09:27;11.50;99.90
52543;DHT22;38449;52.696;6.186;2023-06-04T01:11:54;11.50;99.90
52543;DHT22;38449;52.696;6.186;2023-06-04T01:14:20;11.50;99.90
52543;DHT22;38449;52.696;6.186;2023-06-04T01:16:52;11.50;99.90
52543;DHT22;38449;52.696;6.186;2023-06-04T01:25:18;11.40;99.90
52543;DHT22;38449;52.696;6.186;2023-06-04T01:27:51;11.40;99.90
52543;DHT22;38449;52.696;6.186;2023-06-04T01:30:23;11.40;99.90
52543;DHT22;38449;52.696;6.186;2023-06-04T01:32:49;11.30;99.90
52543;DHT22;38449;52.696;6.186;2023-06-04T01:35:16;11.30;99.90
52543;DHT22;38449;52.696;6.186;2023-06-04T01:37:42;11.30;99.90
52543;DHT22;38449;52.696;6.186;2023-06-04T01:40:09;11.30;99.90
52543;DHT22;38449;52.696;6.186;2023-06-04T01:42:35;11.30;99.90
52543;DHT22;38449;52.696;6.186;2023-06-04T01:45:01;11.30;99.90
52543;DHT22;38449;52.696;6.186;2023-06-04T01:47:27;11.20;99.90
52543;DHT22;38449;52.696;6.186;2023-06-04T01:49:54;11.20;99.90
52543;DHT22;38449;52.696;6.186;2023-06-04T01:52:21;11.20;99.90
52543;DHT22;38449;52.696;6.186;2023-06-04T01:54:48;11.10;99.90
52543;DHT22;38449;52.696;6.186;2023-06-04T01:57:22;11.10;99.90
52543;DHT22;38449;52.696;6.186;2023-06-04T01:59:48;11.10;99.90
52543;DHT22;38449;52.696;6.186;2023-06-04T02:02:14;11.10;99.90
52543;DHT22;38449;52.696;6.186;2023-06-04T02:04:41;11.00;99.90
52543;DHT22;38449;52.696;6.186;2023-06-04T02:07:11;11.00;99.90
52543;DHT22;38449;52.696;6.186;2023-06-04T02:09:40;11.00;99.90
52543;DHT22;38449;52.696;6.186;2023-06-04T02:12:07;11.00;99.90
52543;DHT22;38449;52.696;6.186;2023-06-04T02:14:33;11.00;99.90
52543;DHT22;38449;52.696;6.186;2023-06-04T02:16:59;10.90;99.90
52543;DHT22;38449;52.696;6.186;2023-06-04T02:19:26;10.90;99.90
52543;DHT22;38449;52.696;6.186;2023-06-04T02:21:53;10.90;99.90
52543;DHT22;38449;52.696;6.186;2023-06-04T02:24:20;10.80;99.90
52543;DHT22;38449;52.696;6.186;2023-06-04T02:26:46;10.90;99.90
52543;DHT22;38449;52.696;6.186;2023-06-04T02:29:13;10.80;99.90
52543;DHT22;38449;52.696;6.186;2023-06-04T02:31:39;10.80;99.90
52543;DHT22;38449;52.696;6.186;2023-06-04T02:34:05;10.80;99.90
52543;DHT22;38449;52.696;6.186;2023-06-04T02:36:31;10.80;99.90
52543;DHT22;38449;52.696;6.186;2023-06-04T02:38:57;10.70;99.90
52543;DHT22;38449;52.696;6.186;2023-06-04T02:41:24;10.70;99.90
52543;DHT22;38449;52.696;6.186;2023-06-04T02:43:51;10.70;99.90
52543;DHT22;38449;52.696;6.186;2023-06-04T02:46:17;10.70;99.90
52543;DHT22;38449;52.696;6.186;2023-06-04T02:48:44;10.60;99.90
52543;DHT22;38449;52.696;6.186;2023-06-04T02:51:10;10.60;99.90
52543;DHT22;38449;52.696;6.186;2023-06-04T02:53:37;10.60;99.90
52543;DHT22;38449;52.696;6.186;2023-06-04T02:56:04;10.60;99.90
52543;DHT22;38449;52.696;6.186;2023-06-04T02:58:30;10.60;99.90
52543;DHT22;38449;52.696;6.186;2023-06-04T03:00:57;10.60;99.90
52543;DHT22;38449;52.696;6.186;2023-06-04T03:03:23;10.60;99.90
52543;DHT22;38449;52.696;6.186;2023-06-04T03:05:50;10.60;99.90
52543;DHT22;38449;52.696;6.186;2023-06-04T03:08:16;10.50;99.90
52543;DHT22;38449;52.696;6.186;2023-06-04T03:10:42;10.60;99.90
52543;DHT22;38449;52.696;6.186;2023-06-04T03:13:08;10.50;99.90
52543;DHT22;38449;52.696;6.186;2023-06-04T03:15:35;10.50;99.90
52543;DHT22;38449;52.696;6.186;2023-06-04T03:18:05;10.50;99.90
52543;DHT22;38449;52.696;6.186;2023-06-04T03:20:31;10.50;99.90
52543;DHT22;38449;52.696;6.186;2023-06-04T03:23:04;10.50;99.90
52543;DHT22;38449;52.696;6.186;2023-06-04T03:25:30;10.50;99.90
52543;DHT22;38449;52.696;6.186;2023-06-04T03:27:56;10.50;99.90
52543;DHT22;38449;52.696;6.186;2023-06-04T03:30:23;10.40;99.90
52543;DHT22;38449;52.696;6.186;2023-06-04T03:32:49;10.50;99.90
52543;DHT22;38449;52.696;6.186;2023-06-04T03:35:15;10.50;99.90
52543;DHT22;38449;52.696;6.186;2023-06-04T03:37:41;10.40;99.90
52543;DHT22;38449;52.696;6.186;2023-06-04T03:40:08;10.40;99.90
52543;DHT22;38449;52.696;6.186;2023-06-04T03:42:34;10.40;99.90
52543;DHT22;38449;52.696;6.186;2023-06-04T03:45:01;10.40;99.90
52543;DHT22;38449;52.696;6.186;2023-06-04T03:47:27;10.40;99.90
52543;DHT22;38449;52.696;6.186;2023-06-04T03:49:53;10.50;99.90
52543;DHT22;38449;52.696;6.186;2023-06-04T03:52:20;10.50;99.90
52543;DHT22;38449;52.696;6.186;2023-06-04T03:54:46;10.40;99.90
52543;DHT22;38449;52.696;6.186;2023-06-04T03:57:12;10.40;99.90
52543;DHT22;38449;52.696;6.186;2023-06-04T03:59:38;10.50;99.90
52543;DHT22;38449;52.696;6.186;2023-06-04T04:02:05;10.50;99.90
52543;DHT22;38449;52.696;6.186;2023-06-04T04:04:32;10.50;99.90
52543;DHT22;38449;52.696;6.186;2023-06-04T04:06:59;10.50;99.90
52543;DHT22;38449;52.696;6.186;2023-06-04T04:09:26;10.50;99.90
52543;DHT22;38449;52.696;6.186;2023-06-04T04:11:53;10.60;99.90
52543;DHT22;38449;52.696;6.186;2023-06-04T04:14:19;10.50;99.90
52543;DHT22;38449;52.696;6.186;2023-06-04T04:16:46;10.60;99.90
52543;DHT22;38449;52.696;6.186;2023-06-04T04:19:13;10.60;99.90
52543;DHT22;38449;52.696;6.186;2023-06-04T04:21:39;10.60;99.90
52543;DHT22;38449;52.696;6.186;2023-06-04T04:24:05;10.70;99.90
52543;DHT22;38449;52.696;6.186;2023-06-04T04:26:33;10.80;99.90
52543;DHT22;38449;52.696;6.186;2023-06-04T04:29:00;10.80;99.90
52543;DHT22;38449;52.696;6.186;2023-06-04T04:31:29;10.80;99.90
52543;DHT22;38449;52.696;6.186;2023-06-04T04:33:56;10.90;99.90
52543;DHT22;38449;52.696;6.186;2023-06-04T04:36:23;10.90;99.90
52543;DHT22;38449;52.696;6.186;2023-06-04T04:38:49;11.00;99.90
52543;DHT22;38449;52.696;6.186;2023-06-04T04:41:23;11.00;99.90
52543;DHT22;38449;52.696;6.186;2023-06-04T04:43:49;11.00;99.90
52543;DHT22;38449;52.696;6.186;2023-06-04T04:46:16;11.10;99.90
52543;DHT22;38449;52.696;6.186;2023-06-04T04:48:45;11.10;99.90
52543;DHT22;38449;52.696;6.186;2023-06-04T04:51:12;11.30;99.90
52543;DHT22;38449;52.696;6.186;2023-06-04T04:53:38;11.70;99.90
52543;DHT22;38449;52.696;6.186;2023-06-04T04:56:04;12.60;99.90
52543;DHT22;38449;52.696;6.186;2023-06-04T04:58:31;13.50;99.90
52543;DHT22;38449;52.696;6.186;2023-06-04T05:00:57;14.30;99.90
52543;DHT22;38449;52.696;6.186;2023-06-04T05:03:24;14.90;99.90
52543;DHT22;38449;52.696;6.186;2023-06-04T05:05:50;15.30;99.90
52543;DHT22;38449;52.696;6.186;2023-06-04T05:08:16;15.70;99.90
52543;DHT22;38449;52.696;6.186;2023-06-04T05:10:43;16.10;99.90
52543;DHT22;38449;52.696;6.186;2023-06-04T05:13:09;16.60;99.90
52543;DHT22;38449;52.696;6.186;2023-06-04T05:15:37;16.90;99.90
52543;DHT22;38449;52.696;6.186;2023-06-04T05:18:05;17.10;99.90
52543;DHT22;38449;52.696;6.186;2023-06-04T05:20:32;17.60;99.90
52543;DHT22;38449;52.696;6.186;2023-06-04T05:22:58;17.80;99.90
52543;DHT22;38449;52.696;6.186;2023-06-04T05:25:24;18.00;99.90
52543;DHT22;38449;52.696;6.186;2023-06-04T05:27:53;18.10;99.90
52543;DHT22;38449;52.696;6.186;2023-06-04T05:30:20;18.10;99.90
52543;DHT22;38449;52.696;6.186;2023-06-04T05:32:46;18.20;99.90
52543;DHT22;38449;52.696;6.186;2023-06-04T05:35:13;18.00;99.90
52543;DHT22;38449;52.696;6.186;2023-06-04T05:37:39;18.10;99.90
52543;DHT22;38449;52.696;6.186;2023-06-04T05:40:08;18.40;99.90
52543;DHT22;38449;52.696;6.186;2023-06-04T05:42:36;18.60;99.90
52543;DHT22;38449;52.696;6.186;2023-06-04T05:45:02;18.50;99.90
52543;DHT22;38449;52.696;6.186;2023-06-04T05:47:29;18.90;99.90
52543;DHT22;38449;52.696;6.186;2023-06-04T05:49:56;19.30;99.90
52543;DHT22;38449;52.696;6.186;2023-06-04T05:52:23;19.40;99.90
52543;DHT22;38449;52.696;6.186;2023-06-04T05:54:49;19.70;99.90
52543;DHT22;38449;52.696;6.186;2023-06-04T05:57:16;19.80;99.90
52543;DHT22;38449;52.696;6.186;2023-06-04T05:59:42;19.60;99.90
52543;DHT22;38449;52.696;6.186;2023-06-04T06:02:08;19.90;99.90
52543;DHT22;38449;52.696;6.186;2023-06-04T06:04:35;20.20;99.90
52543;DHT22;38449;52.696;6.186;2023-06-04T06:07:01;20.40;99.90
52543;DHT22;38449;52.696;6.186;2023-06-04T06:09:27;20.40;99.90
52543;DHT22;38449;52.696;6.186;2023-06-04T06:11:53;20.30;99.90
52543;DHT22;38449;52.696;6.186;2023-06-04T06:14:20;20.20;99.90
52543;DHT22;38449;52.696;6.186;2023-06-04T06:16:46;20.10;99.90
52543;DHT22;38449;52.696;6.186;2023-06-04T06:19:13;20.10;99.90
52543;DHT22;38449;52.696;6.186;2023-06-04T06:21:39;20.50;99.90
52543;DHT22;38449;52.696;6.186;2023-06-04T06:24:05;20.70;99.90
52543;DHT22;38449;52.696;6.186;2023-06-04T06:26:31;20.80;99.90
52543;DHT22;38449;52.696;6.186;2023-06-04T06:28:58;20.70;99.90
52543;DHT22;38449;52.696;6.186;2023-06-04T06:31:24;21.40;99.90
52543;DHT22;38449;52.696;6.186;2023-06-04T06:33:52;21.50;99.90
52543;DHT22;38449;52.696;6.186;2023-06-04T06:36:18;21.80;99.90
52543;DHT22;38449;52.696;6.186;2023-06-04T06:38:45;21.80;99.90
52543;DHT22;38449;52.696;6.186;2023-06-04T06:41:12;21.70;99.90
52543;DHT22;38449;52.696;6.186;2023-06-04T06:43:39;21.60;99.90
52543;DHT22;38449;52.696;6.186;2023-06-04T06:46:05;21.50;99.90
52543;DHT22;38449;52.696;6.186;2023-06-04T06:48:31;21.40;99.90
52543;DHT22;38449;52.696;6.186;2023-06-04T06:50:57;21.40;99.90
52543;DHT22;38449;52.696;6.186;2023-06-04T06:53:24;21.40;99.90
52543;DHT22;38449;52.696;6.186;2023-06-04T06:55:50;21.10;99.90
52543;DHT22;38449;52.696;6.186;2023-06-04T06:58:16;20.30;99.90
52543;DHT22;38449;52.696;6.186;2023-06-04T07:00:43;19.50;99.90
52543;DHT22;38449;52.696;6.186;2023-06-04T07:03:09;19.10;99.90
52543;DHT22;38449;52.696;6.186;2023-06-04T07:05:35;18.90;99.90
52543;DHT22;38449;52.696;6.186;2023-06-04T07:08:01;18.90;99.90
52543;DHT22;38449;52.696;6.186;2023-06-04T07:10:29;19.00;99.90
52543;DHT22;38449;52.696;6.186;2023-06-04T07:12:56;18.90;99.90
52543;DHT22;38449;52.696;6.186;2023-06-04T07:15:22;19.10;99.90
52543;DHT22;38449;52.696;6.186;2023-06-04T07:17:48;19.10;99.90
52543;DHT22;38449;52.696;6.186;2023-06-04T07:20:14;18.80;99.90
52543;DHT22;38449;52.696;6.186;2023-06-04T07:22:41;18.80;99.90
52543;DHT22;38449;52.696;6.186;2023-06-04T07:25:08;18.90;99.90
52543;DHT22;38449;52.696;6.186;2023-06-04T07:27:34;19.00;99.90
52543;DHT22;38449;52.696;6.186;2023-06-04T07:30:01;19.00;99.90
52543;DHT22;38449;52.696;6.186;2023-06-04T07:32:27;19.00;99.90
52543;DHT22;38449;52.696;6.186;2023-06-04T07:34:53;19.10;99.90
52543;DHT22;38449;52.696;6.186;2023-06-04T07:37:20;19.00;99.90
52543;DHT22;38449;52.696;6.186;2023-06-04T07:39:46;19.00;99.90
52543;DHT22;38449;52.696;6.186;2023-06-04T07:42:13;19.30;99.90
52543;DHT22;38449;52.696;6.186;2023-06-04T07:44:39;19.60;99.90
52543;DHT22;38449;52.696;6.186;2023-06-04T07:47:06;19.70;99.90
52543;DHT22;38449;52.696;6.186;2023-06-04T07:49:32;19.70;99.90
52543;DHT22;38449;52.696;6.186;2023-06-04T07:51:58;19.60;99.90
52543;DHT22;38449;52.696;6.186;2023-06-04T07:54:25;20.00;99.90
52543;DHT22;38449;52.696;6.186;2023-06-04T07:56:52;20.00;99.90
52543;DHT22;38449;52.696;6.186;2023-06-04T07:59:22;20.00;99.90
52543;DHT22;38449;52.696;6.186;2023-06-04T08:01:50;20.00;99.90
52543;DHT22;38449;52.696;6.186;2023-06-04T08:04:18;20.00;99.90
52543;DHT22;38449;52.696;6.186;2023-06-04T08:06:44;20.00;99.90
52543;DHT22;38449;52.696;6.186;2023-06-04T08:09:11;19.90;99.50
52543;DHT22;38449;52.696;6.186;2023-06-04T08:11:40;19.90;99.60
52543;DHT22;38449;52.696;6.186;2023-06-04T08:14:07;19.80;99.10
52543;DHT22;38449;52.696;6.186;2023-06-04T08:16:33;19.70;99.30
52543;DHT22;38449;52.696;6.186;2023-06-04T08:18:59;19.80;99.00
52543;DHT22;38449;52.696;6.186;2023-06-04T08:21:26;19.90;98.90
52543;DHT22;38449;52.696;6.186;2023-06-04T08:23:53;20.10;98.90
52543;DHT22;38449;52.696;6.186;2023-06-04T08:26:19;20.20;98.60
52543;DHT22;38449;52.696;6.186;2023-06-04T08:28:48;20.30;98.70
52543;DHT22;38449;52.696;6.186;2023-06-04T08:31:15;20.30;98.70
52543;DHT22;38449;52.696;6.186;2023-06-04T08:33:45;20.50;98.90
52543;DHT22;38449;52.696;6.186;2023-06-04T08:36:12;20.60;98.60
52543;DHT22;38449;52.696;6.186;2023-06-04T08:38:38;20.60;98.60
52543;DHT22;38449;52.696;6.186;2023-06-04T08:43:46;20.60;98.20
52543;DHT22;38449;52.696;6.186;2023-06-04T08:46:17;20.70;98.50
52543;DHT22;38449;52.696;6.186;2023-06-04T08:48:44;20.70;98.10
52543;DHT22;38449;52.696;6.186;2023-06-04T08:51:11;20.70;97.90
52543;DHT22;38449;52.696;6.186;2023-06-04T08:53:37;20.60;97.90
52543;DHT22;38449;52.696;6.186;2023-06-04T08:56:04;20.50;97.80
52543;DHT22;38449;52.696;6.186;2023-06-04T08:58:35;20.50;97.80
52543;DHT22;38449;52.696;6.186;2023-06-04T09:01:02;20.60;97.50
52543;DHT22;38449;52.696;6.186;2023-06-04T09:03:29;20.50;97.40
52543;DHT22;38449;52.696;6.186;2023-06-04T09:05:59;20.40;97.40
52543;DHT22;38449;52.696;6.186;2023-06-04T09:08:27;20.60;97.10
52543;DHT22;38449;52.696;6.186;2023-06-04T09:10:57;20.60;97.20
52543;DHT22;38449;52.696;6.186;2023-06-04T09:13:28;20.80;97.20
52543;DHT22;38449;52.696;6.186;2023-06-04T09:16:03;21.00;96.80
52543;DHT22;38449;52.696;6.186;2023-06-04T09:18:30;21.00;95.90
52543;DHT22;38449;52.696;6.186;2023-06-04T09:21:03;21.00;95.90
52543;DHT22;38449;52.696;6.186;2023-06-04T09:23:30;21.00;95.40
52543;DHT22;38449;52.696;6.186;2023-06-04T09:25:56;21.00;95.60
52543;DHT22;38449;52.696;6.186;2023-06-04T09:28:22;21.00;95.10
52543;DHT22;38449;52.696;6.186;2023-06-04T09:30:55;21.00;94.80
52543;DHT22;38449;52.696;6.186;2023-06-04T09:33:21;21.00;95.10
52543;DHT22;38449;52.696;6.186;2023-06-04T09:35:54;20.90;95.10
52543;DHT22;38449;52.696;6.186;2023-06-04T09:38:21;20.90;94.70
52543;DHT22;38449;52.696;6.186;2023-06-04T09:40:48;21.00;95.00
52543;DHT22;38449;52.696;6.186;2023-06-04T09:43:22;21.10;94.90
52543;DHT22;38449;52.696;6.186;2023-06-04T09:45:51;21.20;94.30
52543;DHT22;38449;52.696;6.186;2023-06-04T09:48:20;21.20;94.50
52543;DHT22;38449;52.696;6.186;2023-06-04T09:50:49;21.10;94.40
52543;DHT22;38449;52.696;6.186;2023-06-04T09:53:19;21.10;94.40
52543;DHT22;38449;52.696;6.186;2023-06-04T09:55:58;21.30;94.30
52543;DHT22;38449;52.696;6.186;2023-06-04T09:58:26;21.50;94.20
52543;DHT22;38449;52.696;6.186;2023-06-04T10:00:54;21.30;93.50
52543;DHT22;38449;52.696;6.186;2023-06-04T10:03:24;21.30;93.90
52543;DHT22;38449;52.696;6.186;2023-06-04T10:05:53;21.40;94.10
52543;DHT22;38449;52.696;6.186;2023-06-04T10:08:22;21.30;94.20
52543;DHT22;38449;52.696;6.186;2023-06-04T10:10:51;21.30;93.80
52543;DHT22;38449;52.696;6.186;2023-06-04T10:13:21;21.30;94.20
52543;DHT22;38449;52.696;6.186;2023-06-04T10:15:49;21.20;94.40
52543;DHT22;38449;52.696;6.186;2023-06-04T10:18:16;21.50;94.10
52543;DHT22;38449;52.696;6.186;2023-06-04T10:20:43;21.70;93.80
52543;DHT22;38449;52.696;6.186;2023-06-04T10:23:11;21.80;93.90
52543;DHT22;38449;52.696;6.186;2023-06-04T10:25:37;21.90;93.80
52543;DHT22;38449;52.696;6.186;2023-06-04T10:28:04;21.80;93.10
52543;DHT22;38449;52.696;6.186;2023-06-04T10:30:31;21.90;92.60
52543;DHT22;38449;52.696;6.186;2023-06-04T10:32:59;21.90;92.50
52543;DHT22;38449;52.696;6.186;2023-06-04T10:35:34;22.00;92.70
52543;DHT22;38449;52.696;6.186;2023-06-04T10:38:08;22.10;91.90
52543;DHT22;38449;52.696;6.186;2023-06-04T10:40:36;22.10;91.80
52543;DHT22;38449;52.696;6.186;2023-06-04T10:43:10;21.80;92.10
52543;DHT22;38449;52.696;6.186;2023-06-04T10:45:37;22.10;92.30
52543;DHT22;38449;52.696;6.186;2023-06-04T10:48:05;22.20;92.50
52543;DHT22;38449;52.696;6.186;2023-06-04T10:50:32;22.10;92.10
52543;DHT22;38449;52.696;6.186;2023-06-04T10:53:00;22.30;92.40
52543;DHT22;38449;52.696;6.186;2023-06-04T10:55:30;22.40;92.50
52543;DHT22;38449;52.696;6.186;2023-06-04T10:57:58;22.60;92.40
52543;DHT22;38449;52.696;6.186;2023-06-04T11:00:37;22.50;92.20
52543;DHT22;38449;52.696;6.186;2023-06-04T11:03:07;22.60;91.70
52543;DHT22;38449;52.696;6.186;2023-06-04T11:05:38;22.50;92.10
52543;DHT22;38449;52.696;6.186;2023-06-04T11:08:05;22.70;92.00
52543;DHT22;38449;52.696;6.186;2023-06-04T11:10:43;22.70;92.30
52543;DHT22;38449;52.696;6.186;2023-06-04T11:13:10;22.80;92.00
52543;DHT22;38449;52.696;6.186;2023-06-04T11:15:46;22.70;92.20
52543;DHT22;38449;52.696;6.186;2023-06-04T11:18:18;22.70;92.00
52543;DHT22;38449;52.696;6.186;2023-06-04T11:20:48;22.80;92.00
52543;DHT22;38449;52.696;6.186;2023-06-04T11:23:15;22.80;91.90
52543;DHT22;38449;52.696;6.186;2023-06-04T11:25:43;22.90;92.00
52543;DHT22;38449;52.696;6.186;2023-06-04T11:28:16;22.80;91.70
52543;DHT22;38449;52.696;6.186;2023-06-04T11:30:44;22.90;91.80
52543;DHT22;38449;52.696;6.186;2023-06-04T11:33:10;22.90;91.70
52543;DHT22;38449;52.696;6.186;2023-06-04T11:35:41;23.00;91.70
52543;DHT22;38449;52.696;6.186;2023-06-04T11:38:09;23.00;91.30
52543;DHT22;38449;52.696;6.186;2023-06-04T11:40:35;23.10;91.70
52543;DHT22;38449;52.696;6.186;2023-06-04T11:43:02;23.20;91.40
52543;DHT22;38449;52.696;6.186;2023-06-04T11:45:28;23.20;91.50
52543;DHT22;38449;52.696;6.186;2023-06-04T11:47:57;23.30;91.40
52543;DHT22;38449;52.696;6.186;2023-06-04T11:50:27;23.30;91.10
52543;DHT22;38449;52.696;6.186;2023-06-04T11:52:53;23.20;91.10
52543;DHT22;38449;52.696;6.186;2023-06-04T11:55:20;23.20;91.20
52543;DHT22;38449;52.696;6.186;2023-06-04T11:57:47;23.30;91.00
52543;DHT22;38449;52.696;6.186;2023-06-04T12:00:15;23.20;91.00
52543;DHT22;38449;52.696;6.186;2023-06-04T12:02:53;23.30;90.70
52543;DHT22;38449;52.696;6.186;2023-06-04T12:05:23;23.20;90.70
52543;DHT22;38449;52.696;6.186;2023-06-04T12:08:07;23.10;90.70
52543;DHT22;38449;52.696;6.186;2023-06-04T12:10:42;23.10;90.80
52543;DHT22;38449;52.696;6.186;2023-06-04T12:13:09;23.10;90.30
52543;DHT22;38449;52.696;6.186;2023-06-04T12:15:36;23.10;90.80
52543;DHT22;38449;52.696;6.186;2023-06-04T12:18:02;23.10;90.70
52543;DHT22;38449;52.696;6.186;2023-06-04T12:23:02;23.30;90.40
52543;DHT22;38449;52.696;6.186;2023-06-04T12:25:30;23.30;90.40
52543;DHT22;38449;52.696;6.186;2023-06-04T12:27:57;23.40;90.00
52543;DHT22;38449;52.696;6.186;2023-06-04T12:30:37;23.50;90.10
52543;DHT22;38449;52.696;6.186;2023-06-04T12:33:04;23.60;89.40
52543;DHT22;38449;52.696;6.186;2023-06-04T12:35:30;23.60;89.70
52543;DHT22;38449;52.696;6.186;2023-06-04T12:37:56;23.50;89.70
52543;DHT22;38449;52.696;6.186;2023-06-04T12:40:23;23.40;89.50
52543;DHT22;38449;52.696;6.186;2023-06-04T12:42:52;23.30;89.00
52543;DHT22;38449;52.696;6.186;2023-06-04T12:45:18;23.30;89.20
52543;DHT22;38449;52.696;6.186;2023-06-04T12:47:45;23.40;89.70
52543;DHT22;38449;52.696;6.186;2023-06-04T12:50:12;23.60;89.30
52543;DHT22;38449;52.696;6.186;2023-06-04T12:52:39;23.50;88.90
52543;DHT22;38449;52.696;6.186;2023-06-04T12:55:06;23.60;88.50
52543;DHT22;38449;52.696;6.186;2023-06-04T12:57:32;23.50;88.50
52543;DHT22;38449;52.696;6.186;2023-06-04T12:59:59;23.50;88.80
52543;DHT22;38449;52.696;6.186;2023-06-04T13:02:25;23.60;88.00
52543;DHT22;38449;52.696;6.186;2023-06-04T13:04:51;23.70;88.00
52543;DHT22;38449;52.696;6.186;2023-06-04T13:07:22;23.70;88.00
52543;DHT22;38449;52.696;6.186;2023-06-04T13:09:48;23.70;88.20
52543;DHT22;38449;52.696;6.186;2023-06-04T13:12:14;23.70;88.60
52543;DHT22;38449;52.696;6.186;2023-06-04T13:14:41;23.90;88.50
52543;DHT22;38449;52.696;6.186;2023-06-04T13:17:07;23.60;88.80
52543;DHT22;38449;52.696;6.186;2023-06-04T13:19:35;23.70;88.80
52543;DHT22;38449;52.696;6.186;2023-06-04T13:22:02;23.80;88.60
52543;DHT22;38449;52.696;6.186;2023-06-04T13:24:28;23.80;88.20
52543;DHT22;38449;52.696;6.186;2023-06-04T13:26:54;23.90;88.00
52543;DHT22;38449;52.696;6.186;2023-06-04T13:29:21;23.90;88.00
52543;DHT22;38449;52.696;6.186;2023-06-04T13:31:49;23.80;87.00
52543;DHT22;38449;52.696;6.186;2023-06-04T13:34:15;23.70;87.50
52543;DHT22;38449;52.696;6.186;2023-06-04T13:36:42;23.30;88.00
52543;DHT22;38449;52.696;6.186;2023-06-04T13:39:08;23.50;87.80
52543;DHT22;38449;52.696;6.186;2023-06-04T13:41:34;23.60;87.60
52543;DHT22;38449;52.696;6.186;2023-06-04T13:44:00;23.70;87.70
52543;DHT22;38449;52.696;6.186;2023-06-04T13:46:27;23.80;87.70
52543;DHT22;38449;52.696;6.186;2023-06-04T13:48:53;23.90;86.90
52543;DHT22;38449;52.696;6.186;2023-06-04T13:51:19;23.90;86.50
52543;DHT22;38449;52.696;6.186;2023-06-04T13:53:45;23.70;86.30
52543;DHT22;38449;52.696;6.186;2023-06-04T13:56:12;23.90;86.40
52543;DHT22;38449;52.696;6.186;2023-06-04T13:58:38;23.90;86.40
52543;DHT22;38449;52.696;6.186;2023-06-04T14:01:05;23.90;86.40
52543;DHT22;38449;52.696;6.186;2023-06-04T14:03:32;23.90;86.80
52543;DHT22;38449;52.696;6.186;2023-06-04T14:05:59;24.00;86.80
52543;DHT22;38449;52.696;6.186;2023-06-04T14:08:25;24.00;86.20
52543;DHT22;38449;52.696;6.186;2023-06-04T14:10:52;24.10;86.20
52543;DHT22;38449;52.696;6.186;2023-06-04T14:13:21;24.00;85.70
52543;DHT22;38449;52.696;6.186;2023-06-04T14:15:47;24.20;85.60
52543;DHT22;38449;52.696;6.186;2023-06-04T14:18:13;24.20;85.10
52543;DHT22;38449;52.696;6.186;2023-06-04T14:20:39;24.10;84.70
52543;DHT22;38449;52.696;6.186;2023-06-04T14:23:06;24.10;85.50
52543;DHT22;38449;52.696;6.186;2023-06-04T14:25:32;24.10;84.60
52543;DHT22;38449;52.696;6.186;2023-06-04T14:28:02;24.10;84.70
52543;DHT22;38449;52.696;6.186;2023-06-04T14:30:28;23.90;84.90
52543;DHT22;38449;52.696;6.186;2023-06-04T14:32:55;24.00;85.60
52543;DHT22;38449;52.696;6.186;2023-06-04T14:35:21;24.00;85.90
52543;DHT22;38449;52.696;6.186;2023-06-04T14:37:47;24.10;85.60
52543;DHT22;38449;52.696;6.186;2023-06-04T14:40:14;24.10;85.30
52543;DHT22;38449;52.696;6.186;2023-06-04T14:42:41;24.00;85.20
52543;DHT22;38449;52.696;6.186;2023-06-04T14:45:07;24.10;85.60
52543;DHT22;38449;52.696;6.186;2023-06-04T14:47:34;24.10;85.60
52543;DHT22;38449;52.696;6.186;2023-06-04T14:50:00;24.10;85.70
52543;DHT22;38449;52.696;6.186;2023-06-04T14:52:26;23.90;86.00
52543;DHT22;38449;52.696;6.186;2023-06-04T14:54:54;23.90;85.80
52543;DHT22;38449;52.696;6.186;2023-06-04T14:57:20;23.90;85.90
52543;DHT22;38449;52.696;6.186;2023-06-04T14:59:48;23.90;87.40
52543;DHT22;38449;52.696;6.186;2023-06-04T15:02:14;23.80;90.00
52543;DHT22;38449;52.696;6.186;2023-06-04T15:04:46;23.80;90.10
52543;DHT22;38449;52.696;6.186;2023-06-04T15:07:15;23.90;89.20
52543;DHT22;38449;52.696;6.186;2023-06-04T15:09:42;23.90;88.50
52543;DHT22;38449;52.696;6.186;2023-06-04T15:12:08;23.70;88.40
52543;DHT22;38449;52.696;6.186;2023-06-04T15:14:34;23.70;90.10
52543;DHT22;38449;52.696;6.186;2023-06-04T15:17:00;23.70;90.10
52543;DHT22;38449;52.696;6.186;2023-06-04T15:19:27;23.60;89.60
52543;DHT22;38449;52.696;6.186;2023-06-04T15:21:53;23.40;91.10
52543;DHT22;38449;52.696;6.186;2023-06-04T15:24:19;23.40;91.30
52543;DHT22;38449;52.696;6.186;2023-06-04T15:26:47;23.30;91.40
52543;DHT22;38449;52.696;6.186;2023-06-04T15:29:13;23.30;91.60
52543;DHT22;38449;52.696;6.186;2023-06-04T15:31:40;23.30;91.80
52543;DHT22;38449;52.696;6.186;2023-06-04T15:34:06;23.30;92.20
52543;DHT22;38449;52.696;6.186;2023-06-04T15:36:33;23.20;92.30
52543;DHT22;38449;52.696;6.186;2023-06-04T15:39:00;23.20;92.90
52543;DHT22;38449;52.696;6.186;2023-06-04T15:41:26;23.10;92.70